Selma, AL (36701)

4:29 PM CDT on September 03, 2015 (GMT -0500)
Montgomery | | Change Station
CLOSE
Current Station
Airport
Location: Montgomery,
Elevation: 203 ft
Nearby Weather Stations

Elev 203 ft 32.30 °N, 86.41 °W | Updated 3 minutes ago

Overcast
Overcast
91 °F
Feels Like 96 °F
N
10
Wind Variable Wind from NW

Today
High -- | Low -- °F
--% Chance of Precip.
Yesterday
High -- | Low -- °F
Precip. -- in
6:24 AM 7:10 PM
Waning Gibbous, 66% visible
Pressure 29.92 in
Visibility 10.0 miles
Clouds Few 5500 ft
Scattered Clouds 8000 ft
Mostly Cloudy 11000 ft
Heat Index 96 °F
Dew Point 69 °F
Humidity 48%
Rainfall 0.03 in
Snow Depth Not available.
UV 2 out of 12
Pollen 8.40 out of 12
Air Quality Not available.
Flu Activity Not available.
SPECI KMGM 032126Z 32009KT 10SM VCTS FEW055 SCT080 BKN110 33/21 A2992 RMK AO2 LTG DSNT N AND W T03280206
Pressure 29.92 in
Visibility 10.0 miles
Clouds Few 5500 ft
Scattered Clouds 8000 ft
Mostly Cloudy 11000 ft
Heat Index 96 °F
Dew Point 69 °F
Humidity 48%
Rainfall 0.03 in
Snow Depth Not available.
UV 2 out of 12
Pollen 8.40 out of 12
Air Quality Not available.
Flu Activity Not available.
SPECI KMGM 032126Z 32009KT 10SM VCTS FEW055 SCT080 BKN110 33/21 A2992 RMK AO2 LTG DSNT N AND W T03280206

10-Day Weather Forecast

×

Almanac

Astronomy

Sep. 03, 2015 Rise Set
Actual Time
Civil Twilight
Nautical Twilight
Astronomical Twilight
Moon
Length of Visible Light
Length of Day
Tomorrow will be .
, % of the Moon is Illuminated

Today's Extremes

State Highs State Lows

Community

WunderPhotos

Upload Photos

1,852,038 photos uploaded!

WunderBlogs® & News

Nearby

Air Quality

  Air Quality AQ Index Pollutant
Not available.

Snow Depth

Station Depth Elevation

Earthquake Activity

City Distance Mag. Time & Date
Minimum magnitude displayed is 2.5.

Coastal Water Temperatures

Place Temperature

Stations

Nearby Weather Stations

Station Location Temp. Windchill Dew Point Humidity Wind Precip. Elev Updated Type